Terminal Aerodrome Forecast
Issued by NWS Charleston, WV

Home | Current Version | Previous Version | Text Only | Print | Product List | Glossary On
Versions: 1 2 3 4 5 6 7 8 9 10 11 12 13 14 15 16 17 18 19 20 21
635
FTUS41 KRLX 120531
TAFBKW
TAF
KBKW 120531Z 1206/1306 VRB04KT P6SM BKN250
     FM121500 26008KT 5SM -SN OVC025
     FM121600 27010G18KT 1SM -SN OVC010
     FM122100 29012G21KT 2SM -SHSN OVC015
     FM122200 29012G22KT 5SM -SHSN OVC015
     FM130000 29013G22KT 2SM -SHSN OVC008=

USA.gov is the U.S. government's official web portal to all federal, state and local government web resources and services.